Time;durP1;ratioP1;P1;durP2;ratioP2;P2;SDS_P1;SDS_P2;PMS_P1;PMS_P2;Temp;Humidity;BMP_temperature;BMP_pressure;BME280_temperature;BME280_humidity;BME280_pressure;Samples;Min_cycle;Max_cycle;Signal;HPM_P1;HPM_P2
2021/12/09 00:00:59;;;;;;;14.77;13.27;;;5.80;44.50;;;;;;10386651;28;20613;-68
2021/12/09 00:06:06;;;;;;;16.23;14.53;;;5.70;44.30;;;;;;10387904;28;20232;-68
2021/12/09 00:11:10;;;;;;;15.50;13.87;;;5.80;44.50;;;;;;10389782;28;20631;-68
2021/12/09 00:16:13;;;;;;;15.47;13.00;;;5.80;44.50;;;;;;10383514;28;20272;-68
2021/12/09 00:21:17;;;;;;;13.90;12.50;;;5.80;44.60;;;;;;10385211;28;20236;-68
2021/12/09 00:26:22;;;;;;;10.67;9.67;;;5.80;44.60;;;;;;10383586;28;20229;-68
2021/12/09 00:31:25;;;;;;;14.37;12.87;;;5.80;44.50;;;;;;10384748;28;20230;-68
2021/12/09 00:36:34;;;;;;;15.13;13.63;;;5.80;44.40;;;;;;10387173;28;20564;-68
2021/12/09 00:41:39;;;;;;;15.50;13.90;;;5.80;44.30;;;;;;10384336;28;20238;-68
2021/12/09 00:46:42;;;;;;;16.03;14.33;;;5.80;44.30;;;;;;10386923;28;20240;-68
2021/12/09 00:51:45;;;;;;;18.13;16.23;;;5.80;44.30;;;;;;10387167;28;20265;-68
2021/12/09 00:56:50;;;;;;;16.23;14.53;;;5.80;44.20;;;;;;10382968;28;20244;-68
2021/12/09 01:01:54;;;;;;;16.47;14.77;;;5.70;43.90;;;;;;10387941;28;20253;-68
2021/12/09 01:06:57;;;;;;;16.40;14.73;;;5.70;44.00;;;;;;10383123;28;20647;-70
2021/12/09 01:12:02;;;;;;;15.80;14.03;;;5.60;44.20;;;;;;10380287;28;20238;-70
2021/12/09 01:17:06;;;;;;;15.73;14.13;;;5.60;44.40;;;;;;10386493;28;20237;-70
2021/12/09 01:22:09;;;;;;;15.80;14.20;;;5.60;44.40;;;;;;10388419;28;20718;-70
2021/12/09 01:27:14;;;;;;;16.90;15.20;;;5.70;44.40;;;;;;10385246;28;20244;-70
2021/12/09 01:32:24;;;;;;;17.30;15.43;;;5.60;44.40;;;;;;10385856;28;20227;-70
2021/12/09 01:37:27;;;;;;;18.87;16.77;;;5.60;44.30;;;;;;10384128;28;20245;-70
2021/12/09 01:42:32;;;;;;;19.93;17.57;;;5.70;44.30;;;;;;10385909;28;20235;-68
2021/12/09 01:47:35;;;;;;;20.20;18.00;;;5.70;44.00;;;;;;10388466;28;20222;-68
2021/12/09 01:52:38;;;;;;;19.97;16.87;;;5.60;43.80;;;;;;10387522;28;20230;-68
2021/12/09 01:57:43;;;;;;;19.50;16.53;;;5.60;43.80;;;;;;10382314;28;20311;-68
2021/12/09 02:02:47;;;;;;;18.00;15.53;;;5.50;44.00;;;;;;10386232;28;20246;-68
2021/12/09 02:08:01;;;;;;;18.20;15.93;;;5.40;43.80;;;;;;10378974;28;20308;-68
2021/12/09 02:13:06;;;;;;;18.27;15.30;;;5.40;44.00;;;;;;10380323;28;20603;-68
2021/12/09 02:18:11;;;;;;;18.23;16.27;;;5.40;44.20;;;;;;10377291;28;20238;-68
2021/12/09 02:23:17;;;;;;;20.23;17.17;;;5.40;44.40;;;;;;10384207;28;20746;-68
2021/12/09 02:28:20;;;;;;;18.37;15.97;;;5.40;44.40;;;;;;10372561;28;20233;-68
2021/12/09 02:33:24;;;;;;;17.43;15.57;;;5.40;44.40;;;;;;10386758;28;20236;-68
2021/12/09 02:38:28;;;;;;;19.03;16.33;;;5.50;44.50;;;;;;10392151;28;20236;-68
2021/12/09 02:43:32;;;;;;;18.27;16.30;;;5.50;44.50;;;;;;10394159;28;20225;-68
2021/12/09 02:48:36;;;;;;;20.63;18.43;;;5.50;44.30;;;;;;10394831;28;20227;-68
2021/12/09 02:53:42;;;;;;;19.07;17.03;;;5.50;44.20;;;;;;10393192;28;20253;-68
2021/12/09 02:58:45;;;;;;;19.03;16.40;;;5.50;44.30;;;;;;10392417;28;21330;-68
2021/12/09 03:03:52;;;;;;;18.53;15.07;;;5.50;44.20;;;;;;10393398;28;20241;-68
2021/12/09 03:08:57;;;;;;;17.70;15.83;;;5.40;44.20;;;;;;10387207;28;20288;-68
2021/12/09 03:14:02;;;;;;;19.47;17.23;;;5.40;44.20;;;;;;10393362;28;20236;-68
2021/12/09 03:19:07;;;;;;;19.67;17.43;;;5.50;44.40;;;;;;10388871;28;20242;-68
2021/12/09 03:24:15;;;;;;;19.23;17.17;;;5.40;44.30;;;;;;10390994;28;20263;-68
2021/12/09 03:29:20;;;;;;;18.37;16.47;;;5.40;44.40;;;;;;10387879;28;20256;-68
2021/12/09 03:34:28;;;;;;;17.37;15.47;;;5.40;44.30;;;;;;10393063;28;20237;-68
2021/12/09 03:39:36;;;;;;;14.17;12.77;;;5.40;44.40;;;;;;10388178;28;20244;-68
2021/12/09 03:44:39;;;;;;;18.40;16.10;;;5.40;44.50;;;;;;10385918;28;20246;-67
2021/12/09 03:49:43;;;;;;;17.50;15.67;;;5.40;44.50;;;;;;10391203;28;20249;-67
2021/12/09 03:54:48;;;;;;;15.67;14.03;;;5.40;44.50;;;;;;10385607;28;20617;-68
2021/12/09 03:59:51;;;;;;;14.93;13.37;;;5.50;44.70;;;;;;10388136;28;20245;-67
2021/12/09 04:04:55;;;;;;;14.90;13.40;;;5.50;44.70;;;;;;10388700;28;20241;-68
2021/12/09 04:10:00;;;;;;;15.30;13.70;;;5.50;44.50;;;;;;10391295;28;20756;-68
2021/12/09 04:15:07;;;;;;;14.23;12.73;;;5.50;44.50;;;;;;10383934;28;20493;-68
2021/12/09 04:20:12;;;;;;;15.47;13.93;;;5.50;44.30;;;;;;10385272;28;20233;-68
2021/12/09 04:25:17;;;;;;;15.33;13.77;;;5.50;44.30;;;;;;10387803;28;20222;-68
2021/12/09 04:30:22;;;;;;;15.33;13.83;;;5.50;44.30;;;;;;10383639;28;20268;-67
2021/12/09 04:35:26;;;;;;;19.33;17.33;;;5.50;44.30;;;;;;10391432;28;20225;-68
2021/12/09 04:40:30;;;;;;;18.23;16.37;;;5.50;44.40;;;;;;10389580;28;20229;-68
2021/12/09 04:45:34;;;;;;;19.17;17.17;;;5.40;44.30;;;;;;10390243;28;20241;-68
2021/12/09 04:50:39;;;;;;;14.63;13.17;;;5.40;44.50;;;;;;10386410;28;20466;-68
2021/12/09 04:55:45;;;;;;;18.87;16.83;;;5.40;44.70;;;;;;10390987;28;20230;-68
2021/12/09 05:00:49;;;;;;;29.03;21.97;;;5.30;44.70;;;;;;10388148;28;20229;-68
2021/12/09 05:05:54;;;;;;;25.70;20.27;;;5.40;44.60;;;;;;10393623;28;20804;-67
2021/12/09 05:11:06;;;;;;;16.37;14.70;;;5.30;44.50;;;;;;10393340;28;20715;-68
2021/12/09 05:16:11;;;;;;;16.87;15.20;;;5.30;44.60;;;;;;10386896;28;20229;-68
2021/12/09 05:21:14;;;;;;;16.83;15.13;;;5.40;44.60;;;;;;10386418;28;20234;-69
2021/12/09 05:26:22;;;;;;;15.67;14.07;;;5.40;44.70;;;;;;10391178;28;20239;-70
2021/12/09 05:36:48;;;;;;;15.77;14.13;;;5.40;44.70;;;;;;10385530;28;20233;-68
2021/12/09 05:41:54;;;;;;;15.70;14.07;;;5.40;44.80;;;;;;10384904;28;20234;-68
2021/12/09 05:46:59;;;;;;;16.47;14.77;;;5.40;44.90;;;;;;10386423;28;20221;-73
2021/12/09 05:52:03;;;;;;;17.17;15.47;;;5.40;44.80;;;;;;10383205;28;20229;-71
2021/12/09 05:57:08;;;;;;;16.83;15.10;;;5.50;44.90;;;;;;10379898;28;20233;-71
2021/12/09 06:02:14;;;;;;;16.87;15.07;;;5.50;45.00;;;;;;10387298;28;20236;-69
2021/12/09 06:07:17;;;;;;;17.20;15.43;;;5.50;45.00;;;;;;10379869;28;20238;-68
2021/12/09 06:12:22;;;;;;;18.73;16.73;;;5.50;44.70;;;;;;10385282;28;20756;-69
2021/12/09 06:17:26;;;;;;;17.80;16.00;;;5.40;44.90;;;;;;10381195;28;20230;-69
2021/12/09 06:22:29;;;;;;;17.40;15.57;;;5.40;44.80;;;;;;10385707;28;20683;-67
2021/12/09 06:27:33;;;;;;;17.83;15.93;;;5.40;44.80;;;;;;10384231;28;20229;-70
2021/12/09 06:32:36;;;;;;;17.03;14.60;;;5.30;44.90;;;;;;10383030;28;20245;-66
2021/12/09 06:37:43;;;;;;;16.67;14.00;;;5.30;45.00;;;;;;10383055;28;20237;-68
2021/12/09 06:42:49;;;;;;;15.87;14.20;;;5.30;45.20;;;;;;10380875;28;20617;-69
2021/12/09 06:47:54;;;;;;;17.77;15.97;;;5.30;45.50;;;;;;10383901;28;20240;-69
2021/12/09 06:52:57;;;;;;;17.90;16.00;;;5.40;45.40;;;;;;10385724;28;20238;-69
2021/12/09 06:58:02;;;;;;;17.63;15.73;;;5.40;45.20;;;;;;10390247;28;20242;-69
2021/12/09 07:03:05;;;;;;;17.10;14.77;;;5.50;45.40;;;;;;10384462;28;20257;-70
2021/12/09 07:08:08;;;;;;;17.37;15.57;;;5.50;45.40;;;;;;10383022;28;20230;-71
2021/12/09 07:13:13;;;;;;;16.30;14.53;;;5.60;45.40;;;;;;10380633;28;20325;-71
2021/12/09 07:18:20;;;;;;;20.63;18.33;;;5.60;45.40;;;;;;10382276;28;20683;-71
2021/12/09 07:23:24;;;;;;;20.23;16.80;;;5.60;45.10;;;;;;10391214;28;20234;-71
2021/12/09 07:28:28;;;;;;;18.23;16.30;;;5.60;45.00;;;;;;10395328;28;20230;-71
2021/12/09 07:33:31;;;;;;;17.30;15.50;;;5.60;45.10;;;;;;10395944;28;20547;-73
2021/12/09 07:38:35;;;;;;;17.70;15.90;;;5.60;46.10;;;;;;10392866;28;20275;-72
2021/12/09 07:43:40;;;;;;;18.97;16.30;;;5.60;46.00;;;;;;10384170;28;20238;-72
2021/12/09 07:48:43;;;;;;;14.73;13.23;;;5.70;45.70;;;;;;10388152;28;20230;-72
2021/12/09 07:53:46;;;;;;;12.63;11.43;;;5.70;45.30;;;;;;10392849;28;20238;-68
2021/12/09 07:58:50;;;;;;;11.80;10.60;;;5.70;45.30;;;;;;10390505;28;20229;-68
2021/12/09 08:03:54;;;;;;;11.20;10.10;;;5.70;45.60;;;;;;10389442;28;20234;-69
2021/12/09 08:08:58;;;;;;;11.63;10.53;;;5.70;45.60;;;;;;10387749;28;20234;-72
2021/12/09 08:14:02;;;;;;;10.10;9.10;;;5.70;45.70;;;;;;10393102;28;20242;-72
2021/12/09 08:19:05;;;;;;;8.57;7.77;;;5.80;45.90;;;;;;10395410;28;20229;-70
2021/12/09 08:24:10;;;;;;;8.10;7.40;;;5.80;45.60;;;;;;10388780;28;20625;-67
2021/12/09 08:29:14;;;;;;;7.67;6.97;;;5.80;45.60;;;;;;10390528;28;20230;-67
2021/12/09 08:34:18;;;;;;;8.13;7.43;;;5.80;45.60;;;;;;10393026;28;21090;-67
2021/12/09 08:39:29;;;;;;;8.10;7.40;;;5.90;45.50;;;;;;10388543;28;20241;-72
2021/12/09 08:44:33;;;;;;;7.70;7.10;;;5.90;45.60;;;;;;10389832;28;20237;-72
2021/12/09 08:49:37;;;;;;;7.77;6.97;;;5.90;45.70;;;;;;10389300;28;20229;-71
2021/12/09 08:54:40;;;;;;;7.80;7.10;;;5.90;45.60;;;;;;10391551;28;20239;-70
2021/12/09 08:59:44;;;;;;;8.03;7.33;;;5.90;45.70;;;;;;10391997;28;20657;-70
2021/12/09 09:04:48;;;;;;;7.73;7.03;;;5.90;45.90;;;;;;10394293;28;20230;-70
2021/12/09 09:09:51;;;;;;;7.83;7.13;;;5.90;45.80;;;;;;10387616;28;20248;-70
2021/12/09 09:14:55;;;;;;;7.57;6.97;;;6.00;45.90;;;;;;10391648;28;20233;-70
2021/12/09 09:20:05;;;;;;;7.33;6.73;;;6.00;45.80;;;;;;10386968;28;20226;-71
2021/12/09 09:25:11;;;;;;;8.20;7.50;;;6.10;45.80;;;;;;10387540;28;20244;-72
2021/12/09 09:30:18;;;;;;;7.60;7.00;;;6.10;45.80;;;;;;10383976;28;20900;-72
2021/12/09 09:35:21;;;;;;;11.03;9.80;;;6.10;45.80;;;;;;10385646;28;20632;-73
2021/12/09 09:40:29;;;;;;;11.50;10.30;;;6.10;45.70;;;;;;10394937;28;20317;-73
2021/12/09 09:45:36;;;;;;;10.63;9.53;;;6.10;45.70;;;;;;10387419;28;21331;-73
2021/12/09 09:50:40;;;;;;;10.23;9.17;;;6.10;45.90;;;;;;10378296;28;20288;-73
2021/12/09 09:55:46;;;;;;;9.10;8.30;;;6.10;45.60;;;;;;10381598;28;20316;-73
2021/12/09 10:00:51;;;;;;;9.37;8.47;;;6.10;45.70;;;;;;10382338;28;20234;-73
2021/12/09 10:05:57;;;;;;;9.50;8.60;;;6.00;45.80;;;;;;10386927;28;20236;-71
2021/12/09 10:11:01;;;;;;;11.67;10.43;;;6.00;45.70;;;;;;10386036;28;20797;-68
2021/12/09 10:16:17;;;;;;;12.37;10.70;;;6.00;45.90;;;;;;10386293;28;20222;-69
2021/12/09 10:21:23;;;;;;;9.93;9.03;;;6.00;46.30;;;;;;10383315;28;20601;-72
2021/12/09 10:26:28;;;;;;;10.07;9.07;;;6.00;46.00;;;;;;10383513;28;20753;-71
2021/12/09 10:31:36;;;;;;;10.10;9.10;;;6.00;46.10;;;;;;10382363;28;20225;-71
2021/12/09 10:36:56;;;;;;;11.70;9.57;;;6.00;46.30;;;;;;10380874;28;20247;-71
2021/12/09 10:42:02;;;;;;;9.60;8.67;;;5.90;46.10;;;;;;10387742;28;20252;-71
2021/12/09 10:47:12;;;;;;;10.20;9.23;;;5.90;46.20;;;;;;10386916;28;20734;-71
2021/12/09 10:52:35;;;;;;;10.10;8.37;;;5.90;46.40;;;;;;10385666;28;20244;-71
2021/12/09 10:57:38;;;;;;;11.10;8.30;;;5.90;46.60;;;;;;10392487;28;20233;-71
2021/12/09 11:02:58;;;;;;;9.87;7.97;;;5.90;46.30;;;;;;10394236;28;20253;-71
2021/12/09 11:08:27;;;;;;;9.97;8.27;;;6.00;46.80;;;;;;10395835;28;20730;-70
2021/12/09 11:13:42;;;;;;;9.13;8.23;;;6.00;46.70;;;;;;10392368;28;20233;-71
2021/12/09 11:18:46;;;;;;;9.73;7.43;;;6.00;46.70;;;;;;10389407;28;20550;-71
2021/12/09 11:23:55;;;;;;;8.60;7.70;;;6.00;46.30;;;;;;10391051;28;20527;-71
2021/12/09 11:29:02;;;;;;;9.03;7.63;;;6.10;46.50;;;;;;10396417;28;20225;-70
2021/12/09 11:34:12;;;;;;;10.47;7.37;;;6.10;46.50;;;;;;10390031;28;20222;-71
2021/12/09 11:39:23;;;;;;;8.80;7.77;;;6.10;46.50;;;;;;10393605;28;20733;-72
2021/12/09 11:44:26;;;;;;;8.23;7.43;;;6.20;46.50;;;;;;10390884;28;20585;-72
2021/12/09 11:49:31;;;;;;;8.90;8.00;;;6.20;46.30;;;;;;10388956;28;20731;-72
2021/12/09 11:54:34;;;;;;;8.77;7.87;;;6.30;46.40;;;;;;10387122;28;20225;-73
2021/12/09 12:06:38;;;;;;;8.53;7.40;;;6.30;46.30;;;;;;10387666;28;20232;-73
2021/12/09 12:11:17;;;;;;;8.27;7.47;;;6.30;46.30;;;;;;10389465;28;20233;-72
2021/12/09 12:16:43;;;;;;;7.70;7.00;;;6.30;46.10;;;;;;10388032;28;20298;-72
2021/12/09 12:22:10;;;;;;;9.00;7.03;;;6.30;46.40;;;;;;10391011;28;20233;-72
2021/12/09 12:43:56;;;;;;;9.10;7.03;;;6.10;46.50;;;;;;10373427;28;20229;-73
2021/12/09 12:49:10;;;;;;;7.53;6.30;;;6.20;46.40;;;;;;10361666;28;20249;-74
2021/12/09 12:54:33;;;;;;;7.70;5.97;;;6.20;46.40;;;;;;10369664;28;20222;-73
2021/12/09 12:59:39;;;;;;;6.70;5.93;;;6.10;46.70;;;;;;10369242;28;20234;-73
2021/12/09 13:04:54;;;;;;;7.67;6.10;;;6.10;46.50;;;;;;10369122;28;20234;-74
2021/12/09 13:10:30;;;;;;;7.37;6.37;;;6.20;46.70;;;;;;10361447;28;20232;-74
2021/12/09 13:15:44;;;;;;;7.03;6.27;;;6.20;46.80;;;;;;10365825;28;20244;-73
2021/12/09 13:20:47;;;;;;;7.53;6.60;;;6.30;46.50;;;;;;10367773;28;20240;-73
2021/12/09 13:26:20;;;;;;;8.00;6.50;;;6.30;46.50;;;;;;10369912;28;20242;-74
2021/12/09 13:31:52;;;;;;;8.70;7.10;;;6.30;46.80;;;;;;10369079;28;20676;-74
2021/12/09 13:47:51;;;;;;;9.60;6.70;;;6.40;46.40;;;;;;10385502;28;20711;-72
2021/12/09 13:58:21;;;;;;;11.00;6.80;;;6.40;46.50;;;;;;10379384;28;20237;-72
2021/12/09 14:03:26;;;;;;;8.83;6.90;;;6.40;46.40;;;;;;10382345;28;20253;-72
2021/12/09 14:08:36;;;;;;;7.53;6.80;;;6.40;46.30;;;;;;10385785;28;20234;-70
2021/12/09 14:13:47;;;;;;;9.10;7.17;;;6.40;46.50;;;;;;10380410;28;20264;-70
2021/12/09 14:19:58;;;;;;;8.77;6.73;;;6.40;46.50;;;;;;10380803;28;20814;-70
2021/12/09 14:24:26;;;;;;;9.73;7.03;;;6.40;46.60;;;;;;10377798;28;20240;-70
2021/12/09 14:29:32;;;;;;;7.13;6.33;;;6.50;46.50;;;;;;10384481;28;20940;-73
2021/12/09 14:34:42;;;;;;;7.97;6.63;;;6.50;46.60;;;;;;10392529;28;20229;-73
2021/12/09 14:40:04;;;;;;;9.13;5.90;;;6.50;46.70;;;;;;10392075;28;20233;-73
2021/12/09 14:45:10;;;;;;;6.23;5.53;;;6.50;46.40;;;;;;10393149;28;20234;-73
2021/12/09 14:50:13;;;;;;;6.87;5.37;;;6.50;46.50;;;;;;10394434;28;20609;-73
2021/12/09 14:55:19;;;;;;;9.23;6.30;;;6.50;46.20;;;;;;10395868;28;20229;-72
2021/12/09 15:00:32;;;;;;;6.47;5.60;;;6.50;46.50;;;;;;10386820;28;20248;-69
2021/12/09 15:05:53;;;;;;;7.80;5.83;;;6.50;46.70;;;;;;10392632;28;20229;-69
2021/12/09 15:10:59;;;;;;;6.37;5.37;;;6.50;46.60;;;;;;10395933;28;20240;-71
2021/12/09 15:16:06;;;;;;;7.60;5.80;;;6.50;46.40;;;;;;10390393;28;20818;-73
2021/12/09 15:21:18;;;;;;;7.87;5.50;;;6.40;46.40;;;;;;10388762;28;20229;-74
2021/12/09 15:26:25;;;;;;;5.40;4.90;;;6.40;46.50;;;;;;10392819;28;20242;-72
2021/12/09 15:31:29;;;;;;;5.27;4.77;;;6.30;46.40;;;;;;10394353;28;20580;-73
2021/12/09 15:36:35;;;;;;;6.47;5.10;;;6.30;46.50;;;;;;10390822;28;20242;-73
2021/12/09 15:41:41;;;;;;;5.33;4.73;;;6.30;46.50;;;;;;10392444;28;20229;-74
2021/12/09 15:46:51;;;;;;;5.63;4.83;;;6.20;46.50;;;;;;10394712;28;20234;-74
2021/12/09 15:51:57;;;;;;;6.57;4.87;;;6.20;46.80;;;;;;10393292;28;20226;-74
2021/12/09 15:57:03;;;;;;;8.70;6.97;;;6.20;46.70;;;;;;10391292;28;20229;-74
2021/12/09 16:02:11;;;;;;;7.80;7.00;;;6.20;46.70;;;;;;10386497;28;20238;-73
2021/12/09 16:07:16;;;;;;;8.93;6.70;;;6.20;46.70;;;;;;10390791;28;20237;-72
2021/12/09 16:12:24;;;;;;;7.23;5.90;;;6.20;46.40;;;;;;10379433;28;20225;-73
2021/12/09 16:17:33;;;;;;;6.47;5.77;;;6.20;46.50;;;;;;10391897;28;20237;-73
2021/12/09 16:22:37;;;;;;;6.20;5.60;;;6.20;46.70;;;;;;10395765;28;20596;-72
2021/12/09 16:27:43;;;;;;;7.57;6.33;;;6.20;46.60;;;;;;10393295;28;20320;-73
2021/12/09 16:32:52;;;;;;;7.83;6.17;;;6.20;46.60;;;;;;10393142;28;20229;-72
2021/12/09 16:37:56;;;;;;;5.70;4.80;;;6.20;46.60;;;;;;10391772;28;20232;-73
2021/12/09 16:43:00;;;;;;;6.93;5.53;;;6.20;46.50;;;;;;10392325;28;20233;-73
2021/12/09 16:48:08;;;;;;;5.77;5.17;;;6.30;46.50;;;;;;10387928;28;20719;-73
2021/12/09 16:53:16;;;;;;;5.60;5.10;;;6.30;46.60;;;;;;10390338;28;20229;-73
2021/12/09 16:58:24;;;;;;;6.30;5.53;;;6.30;46.50;;;;;;10392008;28;20235;-73
2021/12/09 17:03:29;;;;;;;6.13;5.60;;;6.30;46.30;;;;;;10388516;28;20631;-72
2021/12/09 17:08:33;;;;;;;6.70;6.10;;;6.30;46.40;;;;;;10385534;28;20715;-73
2021/12/09 17:13:36;;;;;;;5.97;5.47;;;6.30;46.30;;;;;;10388088;28;20261;-72
2021/12/09 17:18:42;;;;;;;6.40;5.80;;;6.40;46.30;;;;;;10386461;28;20328;-73
2021/12/09 17:23:45;;;;;;;7.70;6.90;;;6.40;46.30;;;;;;10390597;28;20233;-72
2021/12/09 17:28:49;;;;;;;6.20;5.60;;;6.40;46.20;;;;;;10386315;28;20233;-72
2021/12/09 17:33:53;;;;;;;6.33;5.73;;;6.40;46.20;;;;;;10385635;28;21077;-72
2021/12/09 17:38:56;;;;;;;6.73;6.10;;;6.40;46.20;;;;;;10390626;28;20622;-72
2021/12/09 17:44:00;;;;;;;6.13;5.53;;;6.30;46.10;;;;;;10385163;28;20238;-72
2021/12/09 17:49:06;;;;;;;8.73;5.83;;;6.30;46.20;;;;;;10389924;28;20694;-73
2021/12/09 17:54:10;;;;;;;6.47;5.87;;;6.20;46.30;;;;;;10383776;28;20229;-72
2021/12/09 17:59:18;;;;;;;6.30;5.70;;;6.20;46.40;;;;;;10387081;28;20233;-72
2021/12/09 18:04:22;;;;;;;5.50;4.93;;;6.20;46.40;;;;;;10389366;28;20730;-72
2021/12/09 18:09:26;;;;;;;5.70;5.20;;;6.20;46.50;;;;;;10388759;28;20230;-72
2021/12/09 18:14:29;;;;;;;6.93;5.30;;;6.20;46.40;;;;;;10388484;28;20225;-72
2021/12/09 18:19:33;;;;;;;6.63;5.33;;;6.20;46.50;;;;;;10382758;28;20238;-72
2021/12/09 18:24:38;;;;;;;6.03;5.47;;;6.20;46.70;;;;;;10386617;28;20233;-72
2021/12/09 18:29:41;;;;;;;6.43;5.77;;;6.20;46.40;;;;;;10385793;28;20233;-72
2021/12/09 18:34:46;;;;;;;7.97;5.37;;;6.20;46.50;;;;;;10388736;28;20229;-72
2021/12/09 18:39:49;;;;;;;6.47;5.57;;;6.20;46.50;;;;;;10383443;28;20736;-72
2021/12/09 18:44:53;;;;;;;5.77;5.20;;;6.20;46.50;;;;;;10387715;28;20230;-72
2021/12/09 18:50:12;;;;;;;5.77;5.07;;;6.20;46.50;;;;;;10389867;28;20284;-73
2021/12/09 18:55:15;;;;;;;5.83;4.97;;;6.20;47.30;;;;;;10384497;28;20226;-72
2021/12/09 19:00:20;;;;;;;6.93;5.47;;;6.20;46.40;;;;;;10385890;28;20232;-72
2021/12/09 19:05:29;;;;;;;6.80;5.70;;;6.20;46.40;;;;;;10386896;28;20249;-72
2021/12/09 19:10:35;;;;;;;6.37;5.53;;;6.20;46.50;;;;;;10384821;28;20233;-72
2021/12/09 19:15:40;;;;;;;7.20;6.07;;;6.20;46.40;;;;;;10388489;28;20603;-73
2021/12/09 19:20:45;;;;;;;6.93;5.53;;;6.20;46.20;;;;;;10394697;28;20712;-72
2021/12/09 19:25:49;;;;;;;7.43;5.70;;;6.20;46.30;;;;;;10388078;28;20613;-72
2021/12/09 19:30:52;;;;;;;6.47;5.80;;;6.10;46.20;;;;;;10394879;28;20633;-72
2021/12/09 19:35:59;;;;;;;6.67;6.07;;;6.10;46.20;;;;;;10391114;28;20234;-72
2021/12/09 19:41:05;;;;;;;6.83;6.17;;;6.00;46.50;;;;;;10389598;28;20249;-72
2021/12/09 19:46:09;;;;;;;6.27;5.67;;;6.00;46.60;;;;;;10388735;28;20230;-72
2021/12/09 19:51:15;;;;;;;6.77;6.07;;;6.00;46.50;;;;;;10395568;28;20221;-73
2021/12/09 19:56:19;;;;;;;6.93;6.23;;;6.00;46.70;;;;;;10388803;28;20230;-70
2021/12/09 20:01:25;;;;;;;7.53;6.77;;;5.90;46.60;;;;;;10396001;28;20235;-72
2021/12/09 20:06:31;;;;;;;8.27;7.43;;;6.00;46.50;;;;;;10389721;28;20260;-69
2021/12/09 20:11:36;;;;;;;7.47;6.70;;;6.10;46.60;;;;;;10388206;28;20225;-70
2021/12/09 20:16:41;;;;;;;8.13;7.23;;;6.10;46.50;;;;;;10387917;28;20242;-70
2021/12/09 20:21:45;;;;;;;7.33;6.63;;;6.10;46.40;;;;;;10387321;28;20716;-70
2021/12/09 20:26:49;;;;;;;8.63;7.83;;;6.20;46.50;;;;;;10388638;28;20597;-70
2021/12/09 20:31:52;;;;;;;8.50;7.70;;;6.20;46.20;;;;;;10392309;28;20234;-72
2021/12/09 20:36:57;;;;;;;9.00;8.00;;;6.20;46.10;;;;;;10392817;28;20611;-72
2021/12/09 20:42:00;;;;;;;8.97;8.07;;;6.20;46.00;;;;;;10391919;28;20872;-72
2021/12/09 20:47:04;;;;;;;8.43;7.63;;;6.20;46.00;;;;;;10389013;28;20959;-73
2021/12/09 20:52:09;;;;;;;9.33;7.83;;;6.20;46.00;;;;;;10387838;28;20226;-73
2021/12/09 20:57:12;;;;;;;9.20;8.23;;;6.20;45.90;;;;;;10381538;28;20722;-73
2021/12/09 21:02:15;;;;;;;8.17;7.43;;;6.20;45.80;;;;;;10384205;28;20237;-73
2021/12/09 21:07:20;;;;;;;9.17;8.37;;;6.20;45.80;;;;;;10387806;28;21213;-73
2021/12/09 21:12:24;;;;;;;9.10;8.30;;;6.20;45.80;;;;;;10386271;28;20253;-72
2021/12/09 21:17:29;;;;;;;9.83;8.83;;;6.20;45.70;;;;;;10385400;28;20775;-73
2021/12/09 21:22:36;;;;;;;9.87;8.97;;;6.20;45.70;;;;;;10389723;28;20234;-72
2021/12/09 21:27:39;;;;;;;10.73;9.73;;;6.20;45.60;;;;;;10385901;28;20249;-72
2021/12/09 21:32:44;;;;;;;10.33;9.40;;;6.10;45.50;;;;;;10388654;28;20241;-73
2021/12/09 21:37:52;;;;;;;10.57;9.50;;;6.00;45.60;;;;;;10380200;28;20238;-73
2021/12/09 21:42:57;;;;;;;9.53;8.63;;;5.90;45.70;;;;;;10381002;28;20230;-75
2021/12/09 21:48:00;;;;;;;9.43;7.90;;;5.90;45.90;;;;;;10383683;28;20325;-74
2021/12/09 21:53:05;;;;;;;7.83;6.80;;;5.90;45.80;;;;;;10386419;28;20230;-74
2021/12/09 21:58:09;;;;;;;7.47;6.13;;;5.80;45.90;;;;;;10381961;28;20272;-74
2021/12/09 22:03:12;;;;;;;6.60;5.93;;;5.70;45.90;;;;;;10386631;28;20229;-75
2021/12/09 22:08:17;;;;;;;7.87;5.43;;;5.60;46.10;;;;;;10388285;28;20750;-75
2021/12/09 22:13:20;;;;;;;6.07;5.40;;;5.60;46.30;;;;;;10383076;28;20225;-75
2021/12/09 22:18:23;;;;;;;6.53;5.80;;;5.50;46.30;;;;;;10382148;28;20234;-75
2021/12/09 22:23:29;;;;;;;6.00;4.70;;;5.50;46.50;;;;;;10383954;28;20717;-75
2021/12/09 22:28:32;;;;;;;7.50;5.13;;;5.50;46.60;;;;;;10383151;28;20232;-74
2021/12/09 22:33:36;;;;;;;5.40;4.60;;;5.50;46.50;;;;;;10387609;28;20222;-75
2021/12/09 22:38:42;;;;;;;7.47;5.03;;;5.50;46.50;;;;;;10385736;28;20246;-75
2021/12/09 22:43:46;;;;;;;6.17;5.13;;;5.50;46.60;;;;;;10387986;28;20229;-75
2021/12/09 22:48:49;;;;;;;7.23;5.20;;;5.50;46.50;;;;;;10382984;28;20234;-75
2021/12/09 22:53:55;;;;;;;5.17;4.50;;;5.50;47.30;;;;;;10389127;28;20245;-75
2021/12/09 22:58:58;;;;;;;5.57;4.20;;;5.50;46.70;;;;;;10390813;28;20234;-75
2021/12/09 23:04:04;;;;;;;6.70;4.63;;;5.50;46.70;;;;;;10386011;28;20237;-72
2021/12/09 23:09:10;;;;;;;6.03;5.07;;;5.50;46.60;;;;;;10384692;28;20237;-74
2021/12/09 23:14:20;;;;;;;5.50;4.90;;;5.60;46.80;;;;;;10386954;28;20222;-75
2021/12/09 23:19:23;;;;;;;5.53;5.03;;;5.60;46.80;;;;;;10384367;28;20234;-75
2021/12/09 23:24:28;;;;;;;5.43;4.93;;;5.60;46.60;;;;;;10391370;28;20707;-75
2021/12/09 23:29:32;;;;;;;6.27;5.17;;;5.70;46.60;;;;;;10389401;28;20234;-75
2021/12/09 23:34:36;;;;;;;6.40;5.33;;;5.70;46.50;;;;;;10392702;28;20588;-75
2021/12/09 23:39:40;;;;;;;6.47;4.67;;;5.70;46.30;;;;;;10383150;28;20797;-75
2021/12/09 23:44:44;;;;;;;6.57;5.37;;;5.70;46.50;;;;;;10387922;28;20236;-75
2021/12/09 23:49:47;;;;;;;5.77;4.90;;;5.70;46.40;;;;;;10387477;28;20667;-75
2021/12/09 23:54:51;;;;;;;5.70;4.93;;;5.70;46.40;;;;;;10389373;28;20238;-74
2021/12/09 23:59:54;;;;;;;5.93;4.80;;;5.70;46.50;;;;;;10386230;28;20234;-75
